createdAt,value
2017-09-22T00:02:15.376Z,57.50
2017-09-22T00:04:42.883Z,57.40
2017-09-22T00:07:10.403Z,57.50
2017-09-22T00:09:37.898Z,57.70
2017-09-22T00:12:05.420Z,57.70
2017-09-22T00:14:32.927Z,57.80
2017-09-22T00:17:00.434Z,57.60
2017-09-22T00:19:27.955Z,57.70
2017-09-22T00:21:55.458Z,57.70
2017-09-22T00:24:22.979Z,57.70
2017-09-22T00:26:51.258Z,58.30
2017-09-22T00:29:19.545Z,57.70
2017-09-22T00:31:47.047Z,57.60
2017-09-22T00:34:14.602Z,57.50
2017-09-22T00:36:42.106Z,57.60
2017-09-22T00:39:09.622Z,57.50
2017-09-22T00:41:37.135Z,57.40
2017-09-22T00:44:05.427Z,57.30
2017-09-22T00:46:32.930Z,57.30
2017-09-22T00:49:00.454Z,57.30
2017-09-22T00:51:27.954Z,57.30
2017-09-22T00:53:55.475Z,57.30
2017-09-22T00:56:22.983Z,57.30
2017-09-22T00:58:50.506Z,57.40
2017-09-22T01:01:18.018Z,57.40
2017-09-22T01:03:46.333Z,57.80
2017-09-22T01:06:13.840Z,57.60
2017-09-22T01:08:41.362Z,57.70
2017-09-22T01:11:08.871Z,57.80
2017-09-22T01:13:37.161Z,57.70
2017-09-22T01:16:05.461Z,57.80
2017-09-22T01:18:32.960Z,57.70
2017-09-22T01:21:00.504Z,57.60
2017-09-22T01:23:28.010Z,57.60
2017-09-22T01:25:56.311Z,57.50
2017-09-22T01:28:23.814Z,57.50
2017-09-22T01:30:51.331Z,57.40
2017-09-22T01:33:18.844Z,57.30
2017-09-22T01:35:46.371Z,57.30
2017-09-22T01:38:13.870Z,57.30
2017-09-22T01:40:41.386Z,57.40
2017-09-22T01:43:08.890Z,57.50
2017-09-22T01:45:36.402Z,57.50
2017-09-22T01:48:03.906Z,57.60
2017-09-22T01:50:31.425Z,57.60
2017-09-22T01:52:58.927Z,57.40
2017-09-22T01:55:26.442Z,57.50
2017-09-22T01:57:53.946Z,57.50
2017-09-22T02:00:22.239Z,57.40
2017-09-22T02:02:49.738Z,57.30
2017-09-22T02:05:17.265Z,57.30
2017-09-22T02:07:44.781Z,58.00
2017-09-22T02:10:12.310Z,57.60
2017-09-22T02:12:39.833Z,57.70
2017-09-22T02:15:08.114Z,57.70
2017-09-22T02:17:36.402Z,57.70
2017-09-22T02:20:03.912Z,57.60
2017-09-22T02:22:33.434Z,57.60
2017-09-22T02:25:00.933Z,58.30
2017-09-22T02:27:28.440Z,58.30
2017-09-22T02:29:55.974Z,58.30
2017-09-22T02:32:23.466Z,58.40
2017-09-22T02:34:50.982Z,58.30
2017-09-22T02:37:18.487Z,58.40
2017-09-22T02:39:46.782Z,58.70
2017-09-22T02:42:15.043Z,58.80
2017-09-22T02:44:43.353Z,58.90
2017-09-22T02:47:10.860Z,58.80
2017-09-22T02:49:38.375Z,58.80
2017-09-22T02:52:05.879Z,58.80
2017-09-22T02:54:33.391Z,58.80
2017-09-22T02:57:00.886Z,58.80
2017-09-22T02:59:28.407Z,58.70
2017-09-22T03:01:55.917Z,58.70
2017-09-22T03:04:23.446Z,58.70
2017-09-22T03:06:51.719Z,58.70
2017-09-22T03:09:19.223Z,58.70
2017-09-22T03:11:47.522Z,58.60
2017-09-22T03:14:15.782Z,58.70
2017-09-22T03:16:43.294Z,58.70
2017-09-22T03:19:10.789Z,58.80
2017-09-22T03:21:38.306Z,58.80
2017-09-22T03:24:05.814Z,58.70
2017-09-22T03:26:34.097Z,58.60
2017-09-22T03:29:02.364Z,58.70
2017-09-22T03:31:29.879Z,58.70
2017-09-22T03:33:57.373Z,58.60
2017-09-22T03:36:24.898Z,58.40
2017-09-22T03:38:52.398Z,58.40
2017-09-22T03:41:19.919Z,58.40
2017-09-22T03:43:47.455Z,58.30
2017-09-22T03:46:14.979Z,58.40
2017-09-22T03:48:42.495Z,58.40
2017-09-22T03:51:10.026Z,59.00
2017-09-22T03:53:37.542Z,58.70
2017-09-22T03:56:05.118Z,58.70
2017-09-22T03:58:32.611Z,58.70
2017-09-22T04:01:00.134Z,58.70
2017-09-22T04:03:27.646Z,58.60
2017-09-22T04:05:55.184Z,58.70
2017-09-22T04:08:22.699Z,58.50
2017-09-22T04:10:50.228Z,58.40
2017-09-22T04:13:17.733Z,58.40
2017-09-22T04:15:45.248Z,58.40
2017-09-22T04:18:12.748Z,58.50
2017-09-22T04:20:40.270Z,58.60
2017-09-22T04:23:07.782Z,58.70
2017-09-22T04:25:36.073Z,58.70
2017-09-22T04:28:03.589Z,58.70
2017-09-22T04:30:31.113Z,58.70
2017-09-22T04:32:58.617Z,58.70
2017-09-22T04:35:26.135Z,58.60
2017-09-22T04:37:53.623Z,58.50
2017-09-22T04:40:21.145Z,58.40
2017-09-22T04:42:48.642Z,58.50
2017-09-22T04:45:16.162Z,58.70
2017-09-22T04:47:43.670Z,58.70
2017-09-22T04:50:11.196Z,58.50
2017-09-22T04:52:38.690Z,58.50
2017-09-22T04:55:06.214Z,58.50
2017-09-22T04:57:33.719Z,58.40
2017-09-22T05:00:01.984Z,58.80
2017-09-22T05:02:29.499Z,58.20
2017-09-22T05:04:56.998Z,58.30
2017-09-22T05:07:24.521Z,58.20
2017-09-22T05:09:52.021Z,58.30
2017-09-22T05:12:19.539Z,58.40
2017-09-22T05:14:47.038Z,58.40
2017-09-22T05:17:14.562Z,58.50
2017-09-22T05:19:42.086Z,58.60
2017-09-22T05:22:10.379Z,58.80
2017-09-22T05:24:37.890Z,58.70
2017-09-22T05:27:06.178Z,58.80
2017-09-22T05:29:34.446Z,58.80
2017-09-22T05:32:01.973Z,58.80
2017-09-22T05:34:29.482Z,58.80
2017-09-22T05:36:57.772Z,58.80
2017-09-22T05:39:25.270Z,58.80
2017-09-22T05:41:52.787Z,58.80
2017-09-22T05:44:20.290Z,58.90
2017-09-22T05:46:47.826Z,59.50
2017-09-22T05:49:15.331Z,59.00
2017-09-22T05:51:42.851Z,59.20
2017-09-22T05:54:10.352Z,59.10
2017-09-22T05:56:38.650Z,59.40
2017-09-22T05:59:06.169Z,59.40
2017-09-22T06:01:33.698Z,59.50
2017-09-22T06:04:01.202Z,59.60
2017-09-22T06:06:28.727Z,59.70
2017-09-22T06:08:56.254Z,59.80
2017-09-22T06:11:23.779Z,59.90
2017-09-22T06:13:51.278Z,60.00
2017-09-22T06:16:18.794Z,60.10
2017-09-22T06:18:46.286Z,60.20
2017-09-22T06:21:14.258Z,60.60
2017-09-22T06:23:41.758Z,60.70
2017-09-22T06:26:09.275Z,60.90
2017-09-22T06:28:36.778Z,61.20
2017-09-22T06:31:04.303Z,61.40
2017-09-22T06:33:31.809Z,61.60
2017-09-22T06:35:59.335Z,61.80
2017-09-22T06:38:26.837Z,62.20
2017-09-22T06:40:54.364Z,62.40
2017-09-22T06:43:21.862Z,62.30
2017-09-22T06:45:49.374Z,62.60
2017-09-22T06:48:16.873Z,62.10
2017-09-22T06:50:44.397Z,61.40
2017-09-22T06:53:12.677Z,61.00
2017-09-22T06:55:40.203Z,60.90
2017-09-22T06:58:07.703Z,60.80
2017-09-22T07:00:35.217Z,60.80
2017-09-22T07:03:02.747Z,60.60
2017-09-22T07:05:30.259Z,60.60
2017-09-22T07:07:57.794Z,60.40
2017-09-22T07:10:25.298Z,60.90
2017-09-22T07:12:52.818Z,60.40
2017-09-22T07:15:20.341Z,60.40
2017-09-22T07:17:47.855Z,60.00
2017-09-22T07:20:15.353Z,59.50
2017-09-22T07:22:43.350Z,59.30
2017-09-22T07:25:11.627Z,58.80
2017-09-22T07:27:39.914Z,58.70
2017-09-22T07:30:07.425Z,58.60
2017-09-22T07:32:34.954Z,58.40
2017-09-22T07:35:02.458Z,58.30
2017-09-22T07:37:29.970Z,58.00
2017-09-22T07:39:57.498Z,57.80
2017-09-22T07:42:25.793Z,57.80
2017-09-22T07:44:53.315Z,58.30
2017-09-22T07:47:20.842Z,57.10
2017-09-22T07:49:48.365Z,57.40
2017-09-22T07:52:15.923Z,57.20
2017-09-22T07:54:43.439Z,56.70
2017-09-22T07:57:10.967Z,56.30
2017-09-22T07:59:38.471Z,56.10
2017-09-22T08:02:05.989Z,56.10
2017-09-22T08:04:33.506Z,55.80
2017-09-22T08:07:01.035Z,55.90
2017-09-22T08:09:28.574Z,55.90
2017-09-22T08:11:56.094Z,55.30
2017-09-22T08:14:23.634Z,55.30
2017-09-22T08:16:51.158Z,55.40
2017-09-22T08:19:18.676Z,55.60
2017-09-22T08:21:46.190Z,55.30
2017-09-22T08:24:13.718Z,54.60
2017-09-22T08:26:41.214Z,55.00
2017-09-22T08:29:08.731Z,54.40
2017-09-22T08:31:37.154Z,54.30
2017-09-22T08:34:04.704Z,54.00
2017-09-22T08:36:32.222Z,54.40
2017-09-22T08:39:00.661Z,54.80
2017-09-22T08:41:28.166Z,54.80
2017-09-22T08:43:55.732Z,54.80
2017-09-22T08:46:23.231Z,54.50
2017-09-22T08:48:50.746Z,54.70
2017-09-22T08:51:18.249Z,54.70
2017-09-22T08:53:45.777Z,54.70
2017-09-22T08:56:13.274Z,54.40
2017-09-22T08:58:40.787Z,54.00
2017-09-22T09:01:08.311Z,54.10
2017-09-22T09:03:36.586Z,53.80
2017-09-22T09:06:04.879Z,54.20
2017-09-22T09:08:32.374Z,54.10
2017-09-22T09:10:59.922Z,54.30
2017-09-22T09:13:27.413Z,54.40
2017-09-22T09:15:54.950Z,54.30
2017-09-22T09:18:22.463Z,53.90
2017-09-22T09:20:50.750Z,53.70
2017-09-22T09:23:18.255Z,53.60
2017-09-22T09:25:45.783Z,52.70
2017-09-22T09:28:13.288Z,53.10
2017-09-22T09:30:40.806Z,52.60
2017-09-22T09:33:08.314Z,52.00
2017-09-22T09:35:35.858Z,52.50
2017-09-22T09:38:03.379Z,52.40
2017-09-22T09:40:30.918Z,52.40
2017-09-22T09:42:59.193Z,51.50
2017-09-22T09:45:27.474Z,51.70
2017-09-22T09:47:54.969Z,51.60
2017-09-22T09:50:22.486Z,51.20
2017-09-22T09:52:50.749Z,51.60
2017-09-22T09:55:19.065Z,51.30
2017-09-22T09:57:46.578Z,51.30
2017-09-22T10:00:14.083Z,51.00
2017-09-22T10:02:41.636Z,51.10
2017-09-22T10:05:10.070Z,51.30
2017-09-22T10:07:37.590Z,51.30
2017-09-22T10:10:05.091Z,51.20
2017-09-22T10:12:32.606Z,51.50
2017-09-22T10:15:00.106Z,51.00
2017-09-22T10:17:27.629Z,51.00
2017-09-22T10:19:55.123Z,50.80
2017-09-22T10:22:22.649Z,51.00
2017-09-22T10:24:50.151Z,50.60
2017-09-22T10:27:17.670Z,50.20
2017-09-22T10:29:45.170Z,49.10
2017-09-22T10:32:12.699Z,48.80
2017-09-22T10:34:40.202Z,49.70
2017-09-22T10:37:08.488Z,48.90
2017-09-22T10:39:35.998Z,48.90
2017-09-22T10:42:03.526Z,49.10
2017-09-22T10:44:31.801Z,49.60
2017-09-22T10:46:59.334Z,49.50
2017-09-22T10:49:27.603Z,49.70
2017-09-22T10:51:55.139Z,49.70
2017-09-22T10:54:22.637Z,49.30
2017-09-22T10:56:50.906Z,49.10
2017-09-22T10:59:19.186Z,49.30
2017-09-22T11:01:47.450Z,49.20
2017-09-22T11:04:15.739Z,49.10
2017-09-22T11:06:44.015Z,49.60
2017-09-22T11:09:11.530Z,49.60
2017-09-22T11:11:39.031Z,49.70
2017-09-22T11:14:06.548Z,49.30
2017-09-22T11:16:34.820Z,49.70
2017-09-22T11:19:02.344Z,49.70
2017-09-22T11:21:29.850Z,49.30
2017-09-22T11:23:57.392Z,49.30
2017-09-22T11:26:25.666Z,49.80
2017-09-22T11:28:53.966Z,50.10
2017-09-22T11:31:20.973Z,50.00
2017-09-22T11:33:47.995Z,49.80
2017-09-22T11:36:15.499Z,49.30
2017-09-22T11:38:43.785Z,49.20
2017-09-22T11:41:12.062Z,48.90
2017-09-22T11:43:39.598Z,48.90
2017-09-22T11:46:07.119Z,48.90
2017-09-22T11:48:34.645Z,48.90
2017-09-22T11:51:02.163Z,48.70
2017-09-22T11:53:30.766Z,48.80
2017-09-22T11:55:58.309Z,48.80
2017-09-22T11:58:25.814Z,48.50
2017-09-22T12:00:53.335Z,48.20
2017-09-22T12:03:20.843Z,48.60
2017-09-22T12:05:48.362Z,47.70
2017-09-22T12:08:15.877Z,47.40
2017-09-22T12:10:44.174Z,47.10
2017-09-22T12:13:11.689Z,47.10
2017-09-22T12:15:39.216Z,46.90
2017-09-22T12:18:06.717Z,46.50
2017-09-22T12:20:34.238Z,46.70
2017-09-22T12:23:01.743Z,46.90
2017-09-22T12:25:29.264Z,47.00
2017-09-22T12:27:56.769Z,47.00
2017-09-22T12:30:25.064Z,46.70
2017-09-22T12:32:52.574Z,46.50
2017-09-22T12:35:20.086Z,46.70
2017-09-22T12:37:47.594Z,46.80
2017-09-22T12:40:15.122Z,47.10
2017-09-22T12:42:42.626Z,46.40
2017-09-22T12:45:10.155Z,46.20
2017-09-22T12:47:37.662Z,45.70
2017-09-22T12:50:05.186Z,46.20
2017-09-22T12:52:32.703Z,46.00
2017-09-22T12:55:00.227Z,46.10
2017-09-22T12:57:27.754Z,46.20
2017-09-22T12:59:55.331Z,46.40
2017-09-22T13:02:22.862Z,46.00
2017-09-22T13:04:50.382Z,46.20
2017-09-22T13:07:17.923Z,46.30
2017-09-22T13:09:45.433Z,46.60
2017-09-22T13:12:12.957Z,46.10
2017-09-22T13:14:41.326Z,45.90
2017-09-22T13:17:08.849Z,45.90
2017-09-22T13:19:36.366Z,46.20
2017-09-22T13:22:03.902Z,46.10
2017-09-22T13:24:32.191Z,46.70
2017-09-22T13:27:00.477Z,46.80
2017-09-22T13:29:27.990Z,46.80
2017-09-22T13:31:55.512Z,46.90
2017-09-22T13:34:23.039Z,47.10
2017-09-22T13:36:51.341Z,46.80
2017-09-22T13:39:19.754Z,46.80
2017-09-22T13:41:47.280Z,46.80
2017-09-22T13:44:14.788Z,47.20
2017-09-22T13:46:42.317Z,47.20
2017-09-22T13:49:09.827Z,47.30
2017-09-22T13:51:37.362Z,47.50
2017-09-22T13:54:04.881Z,47.30
2017-09-22T13:56:32.410Z,47.30
2017-09-22T13:58:59.939Z,47.20
2017-09-22T14:01:27.454Z,46.70
2017-09-22T14:03:54.977Z,46.90
2017-09-22T14:06:22.499Z,46.30
2017-09-22T14:08:50.042Z,46.70
2017-09-22T14:11:17.568Z,46.70
2017-09-22T14:13:45.094Z,46.90
2017-09-22T14:16:12.616Z,47.30
2017-09-22T14:18:40.145Z,47.30
2017-09-22T14:21:08.422Z,47.10
2017-09-22T14:23:36.722Z,46.70
2017-09-22T14:26:04.223Z,46.70
2017-09-22T14:28:31.734Z,46.50
2017-09-22T14:31:00.014Z,46.20
2017-09-22T14:33:27.545Z,46.10
2017-09-22T14:35:55.069Z,46.10
2017-09-22T14:38:22.590Z,46.30
2017-09-22T14:40:50.094Z,46.40
2017-09-22T14:43:17.618Z,46.60
2017-09-22T14:45:45.138Z,46.30
2017-09-22T14:48:12.698Z,46.50
2017-09-22T14:50:40.237Z,46.60
2017-09-22T14:53:07.740Z,46.60
2017-09-22T14:55:36.613Z,46.60
2017-09-22T14:58:04.162Z,46.40
2017-09-22T15:00:31.691Z,46.60
2017-09-22T15:02:59.214Z,46.70
2017-09-22T15:05:26.752Z,46.80
2017-09-22T15:07:54.254Z,46.60
2017-09-22T15:10:21.790Z,46.90
2017-09-22T15:12:50.070Z,47.20
2017-09-22T15:15:18.359Z,46.60
2017-09-22T15:17:45.879Z,46.60
2017-09-22T15:20:13.418Z,46.90
2017-09-22T15:22:40.926Z,46.80
2017-09-22T15:25:09.483Z,46.60
2017-09-22T15:27:37.279Z,46.60
2017-09-22T15:30:05.606Z,46.50
2017-09-22T15:32:33.111Z,46.40
2017-09-22T15:35:01.394Z,46.30
2017-09-22T15:37:28.914Z,46.30
2017-09-22T15:39:56.450Z,46.40
2017-09-22T15:42:23.963Z,46.40
2017-09-22T15:44:51.522Z,46.50
2017-09-22T15:47:19.035Z,46.30
2017-09-22T15:49:46.572Z,46.30
2017-09-22T15:52:14.078Z,46.30
2017-09-22T15:54:41.613Z,46.40
2017-09-22T15:57:09.139Z,46.40
2017-09-22T15:59:36.662Z,46.40
2017-09-22T16:02:04.181Z,46.50
2017-09-22T16:04:31.695Z,46.60
2017-09-22T16:06:59.982Z,46.40
2017-09-22T16:09:28.252Z,46.40
2017-09-22T16:11:56.562Z,46.30
2017-09-22T16:14:24.066Z,46.30
2017-09-22T16:16:51.598Z,46.30
2017-09-22T16:19:19.108Z,46.40
2017-09-22T16:21:46.676Z,46.30
2017-09-22T16:24:14.962Z,46.60
2017-09-22T16:26:42.535Z,46.60
2017-09-22T16:29:10.042Z,46.60
2017-09-22T16:31:38.372Z,46.60
2017-09-22T16:34:05.879Z,46.60
2017-09-22T16:36:33.439Z,46.90
2017-09-22T16:39:01.740Z,47.40
2017-09-22T16:41:30.041Z,47.80
2017-09-22T16:43:57.554Z,47.80
2017-09-22T16:46:25.083Z,48.20
2017-09-22T16:48:52.634Z,48.40
2017-09-22T16:51:20.186Z,48.60
2017-09-22T16:53:47.726Z,49.10
2017-09-22T16:56:15.256Z,49.70
2017-09-22T16:58:42.783Z,50.70
2017-09-22T17:01:10.291Z,50.60
2017-09-22T17:03:38.602Z,51.20
2017-09-22T17:06:06.214Z,51.10
2017-09-22T17:08:33.754Z,51.00
2017-09-22T17:11:01.279Z,51.60
2017-09-22T17:13:28.802Z,51.70
2017-09-22T17:15:56.309Z,51.80
2017-09-22T17:18:23.834Z,52.10
2017-09-22T17:20:51.354Z,52.20
2017-09-22T17:23:18.891Z,52.50
2017-09-22T17:25:46.410Z,52.90
2017-09-22T17:28:13.941Z,53.10
2017-09-22T17:30:42.247Z,53.50
2017-09-22T17:33:10.550Z,53.70
2017-09-22T17:35:38.050Z,53.60
2017-09-22T17:38:05.612Z,53.80
2017-09-22T17:40:33.131Z,53.90
2017-09-22T17:43:00.663Z,54.00
2017-09-22T17:45:28.187Z,54.20
2017-09-22T17:47:55.735Z,54.30
2017-09-22T17:50:23.256Z,54.50
2017-09-22T17:52:50.763Z,54.70
2017-09-22T17:55:18.292Z,54.70
2017-09-22T17:57:45.802Z,54.80
2017-09-22T18:00:14.114Z,55.20
2017-09-22T18:02:41.624Z,55.00
2017-09-22T18:05:09.152Z,55.20
2017-09-22T18:07:36.658Z,55.30
2017-09-22T18:10:04.947Z,55.80
2017-09-22T18:12:33.268Z,55.90
2017-09-22T18:15:00.818Z,55.90
2017-09-22T18:17:28.338Z,56.00
2017-09-22T18:19:56.626Z,56.20
2017-09-22T18:22:24.147Z,56.10
2017-09-22T18:24:51.675Z,56.10
2017-09-22T18:27:19.190Z,56.30
2017-09-22T18:29:47.479Z,56.40
2017-09-22T18:32:15.750Z,56.60
2017-09-22T18:34:43.280Z,56.50
2017-09-22T18:37:10.786Z,56.60
2017-09-22T18:39:38.314Z,56.70
2017-09-22T18:42:06.600Z,57.00
2017-09-22T18:44:34.889Z,56.90
2017-09-22T18:47:02.412Z,56.90
2017-09-22T18:49:29.986Z,56.90
2017-09-22T18:51:58.266Z,57.50
2017-09-22T18:54:26.541Z,57.00
2017-09-22T18:56:54.123Z,57.00
2017-09-22T18:59:21.640Z,57.20
2017-09-22T19:01:49.173Z,57.30
2017-09-22T19:04:16.691Z,57.40
2017-09-22T19:06:44.993Z,57.50
2017-09-22T19:09:12.497Z,57.40
2017-09-22T19:11:40.057Z,57.40
2017-09-22T19:14:07.571Z,57.50
2017-09-22T19:16:35.110Z,57.40
2017-09-22T19:19:02.640Z,57.50
2017-09-22T19:21:30.174Z,57.50
2017-09-22T19:23:57.678Z,57.50
2017-09-22T19:26:25.967Z,57.60
2017-09-22T19:28:54.238Z,57.50
2017-09-22T19:31:22.532Z,57.60
2017-09-22T19:33:50.084Z,57.50
2017-09-22T19:36:17.626Z,57.60
2017-09-22T19:38:45.902Z,57.80
2017-09-22T19:41:13.469Z,57.60
2017-09-22T19:43:41.743Z,58.00
2017-09-22T19:46:10.047Z,58.00
2017-09-22T19:48:37.545Z,58.00
2017-09-22T19:51:05.095Z,58.10
2017-09-22T19:53:32.667Z,58.20
2017-09-22T19:56:00.186Z,58.20
2017-09-22T19:58:27.722Z,58.30
2017-09-22T20:00:56.036Z,58.30
2017-09-22T20:03:23.576Z,58.20
2017-09-22T20:05:51.111Z,58.30
2017-09-22T20:08:19.401Z,58.40
2017-09-22T20:10:47.670Z,58.50
2017-09-22T20:13:15.971Z,58.50
2017-09-22T20:15:43.519Z,58.50
2017-09-22T20:18:11.818Z,58.60
2017-09-22T20:20:39.325Z,58.60
2017-09-22T20:23:06.862Z,58.50
2017-09-22T20:25:34.489Z,59.20
2017-09-22T20:28:02.058Z,58.50
2017-09-22T20:30:29.575Z,58.60
2017-09-22T20:32:57.884Z,58.60
2017-09-22T20:35:25.386Z,58.60
2017-09-22T20:37:52.910Z,58.60
2017-09-22T20:40:21.220Z,58.60
2017-09-22T20:42:48.749Z,58.60
2017-09-22T20:45:16.272Z,58.70
2017-09-22T20:47:44.544Z,58.70
2017-09-22T20:50:14.164Z,58.60
2017-09-22T20:52:42.474Z,58.80
2017-09-22T20:55:10.015Z,58.80
2017-09-22T20:57:37.531Z,58.70
2017-09-22T21:00:05.063Z,58.80
2017-09-22T21:02:34.215Z,58.90
2017-09-22T21:05:01.970Z,59.00
2017-09-22T21:07:30.249Z,59.10
2017-09-22T21:09:58.549Z,59.20
2017-09-22T21:12:26.065Z,59.10
2017-09-22T21:14:53.595Z,59.20
2017-09-22T21:17:21.106Z,59.20
2017-09-22T21:19:49.395Z,59.20
2017-09-22T21:22:17.670Z,59.20
2017-09-22T21:24:46.013Z,59.30
2017-09-22T21:27:13.523Z,59.30
2017-09-22T21:29:41.049Z,59.30
2017-09-22T21:32:08.554Z,59.20
2017-09-22T21:34:36.864Z,59.10
2017-09-22T21:37:04.378Z,59.10
2017-09-22T21:39:31.903Z,59.00
2017-09-22T21:42:00.177Z,59.10
2017-09-22T21:44:27.718Z,58.90
2017-09-22T21:46:55.227Z,58.50
2017-09-22T21:49:22.754Z,58.90
2017-09-22T21:51:50.282Z,59.00
2017-09-22T21:54:17.778Z,58.90
2017-09-22T21:56:45.302Z,58.80
2017-09-22T21:59:12.820Z,58.20
2017-09-22T22:01:40.410Z,58.70
2017-09-22T22:04:25.621Z,58.80
2017-09-22T22:06:58.723Z,58.80
2017-09-22T22:09:26.998Z,59.00
2017-09-22T22:11:55.299Z,59.60
2017-09-22T22:14:22.806Z,58.90
2017-09-22T22:16:50.326Z,58.90
2017-09-22T22:19:17.846Z,59.40
2017-09-22T22:21:45.375Z,58.90
2017-09-22T22:24:12.883Z,58.70
2017-09-22T22:26:41.177Z,58.80
2017-09-22T22:29:08.679Z,58.80
2017-09-22T22:31:36.199Z,58.90
2017-09-22T22:34:03.710Z,58.80
2017-09-22T22:36:31.235Z,58.70
2017-09-22T22:38:58.734Z,58.80
2017-09-22T22:41:26.250Z,58.80
2017-09-22T22:43:53.745Z,58.80
2017-09-22T22:46:21.282Z,58.90
2017-09-22T22:48:48.790Z,58.80
2017-09-22T22:51:17.094Z,58.70
2017-09-22T22:53:44.589Z,58.60
2017-09-22T22:56:12.099Z,58.60
2017-09-22T22:58:39.625Z,58.70
2017-09-22T23:01:07.130Z,58.70
2017-09-22T23:03:34.650Z,58.70
2017-09-22T23:06:02.931Z,58.80
2017-09-22T23:08:31.214Z,58.80
2017-09-22T23:10:59.475Z,58.90
2017-09-22T23:13:27.003Z,58.80
2017-09-22T23:15:54.519Z,58.90
2017-09-22T23:18:22.064Z,58.80
2017-09-22T23:20:50.330Z,59.00
2017-09-22T23:23:17.861Z,59.00
2017-09-22T23:25:45.361Z,59.10
2017-09-22T23:28:13.638Z,59.20
2017-09-22T23:30:41.907Z,59.20
2017-09-22T23:33:10.210Z,59.30
2017-09-22T23:35:37.710Z,59.20
2017-09-22T23:38:06.288Z,59.30
2017-09-22T23:40:33.795Z,59.30
2017-09-22T23:43:02.089Z,59.60
2017-09-22T23:45:29.593Z,59.40
2017-09-22T23:47:57.120Z,59.60
2017-09-22T23:50:24.630Z,59.50
2017-09-22T23:52:52.157Z,59.50
2017-09-22T23:55:19.650Z,59.50
2017-09-22T23:57:47.158Z,59.50
